Timeline UpdatesTrip UpdatesNews PostsPvt Posts♥♥Travel TipsAdmin PostsConv PostsFollowed PostsChat RequestsBlog PostsPNR Posts

Disclaimer
Search
 
 
Sat Nov 29, 2014 12:58:54 ISTHomeTrainsΣChainsAtlasPNRForumGalleryNewsFAQTripsMembersLoginFeedback
No Recent News for this Train
Other Trains in the News **new
Latest...
.
Mon Aug 26, 2013 (09:43AM)
⇐ Return Journey: Train# 11027

11028/Chennai-Mumbai CST Mail

Time-Table HAS CHANGED.
Sep 03 2014 (10:10PM)
Change Departure Station:
Change Arrival Station:
Post a Train Travel TipPost a Train Travel Tip **new
Post a Comment/Question/Picture/VideoPost a Comment/Question/Picture/Video
Pantry/Catering
✓ Pantry Car Avbl
✓ Catering Avbl
RSA - Rake Sharing
11041 Mumbai Chennai Express
Rake/Coach Composition
Loco >SLR >UR >RMS>A1 >B1 >S10 To > S6 >PC >S5 To >S1>UR >LDS >S11 (S11 From Solapur To Daund Junction )
Loco
MAS-GTL=> LGD WAP-4 GTL-PUNE=> GY WDM-3A PUNE-CSTM=> KYN WCAM #2P/3
News    PNR    Forum    Time-Table    Availability    Fare Chart    Map    Arr/Dep History    Trips    Gallery    ΣChains    X/O    Timeline    
Travel Time: 16h 22m    29 halts    Distance: 685 km    Avg Speed: 41 km/hr
Type: Mail/Express
Zone: CR/Central
Departs @ 22:50 (Avg 2m late)
Platform# 1
SMTWTFS
Chennai Central/MAS 
Arrives @ 15:12 +1 night (Avg 2m late)
Platform# 1
SMTWTFS
Shahabad/SDB 

29 halts. 111 intermediate Stations between Chennai Central and Shahabad

Show ALL intermediate Stations  Show Old Time-Table

#TrkCodeStation NameX/OArrivesAvgDepartsAvgHaltPFDay#KmSpeedElevZoneAddress
1/==/MASChennai Central (12)»  -22:50+2110.0649mSRChennai 600003, Tamil Nadu
2/==/TRLTiruvallur (6)  23:29+1023:30+111m--141.74950mSRTiruvallur, Tamil Nadu
3/==/AJJArakkonam Junction (8)  00:01 00:03+500:05+64 2m--268.74591mSRArakkonam, Tamil Nadu
4/==/TRTTiruttani (3)  00:24+600:25+71m3283.06384mSRTiruttani, Tamil Nadu
5/==/PUTPuttur (3)O  00:54+900:55+101m12113.322149mSRPuttur, Andhra Pradesh
6/==/RURenigunta Junction (5)X  02:00-102:20 02:05+1120 5m12136.763113mSCRChittoor District, Andhra Pradesh
7/==/KOUKoduru (2)  02:59 02:44+1403:00 02:45+151m22177.669215mSCRKadapa (YSR District), Andhra Pradesh
8/==/RJPRazampeta (2)  03:29 03:14+1503:30 03:15+161m22211.245144mSCRKadapa (YSR District), Andhra Pradesh
9/==/NRENandalur  03:44 03:29+1703:45 03:30+181m--2221.746143mSCRRayalaseema Region, Andhra Pradesh
10/==/HXKadapa (3)X  04:34 04:23+404:35 04:25+61 2m32262.275146mSCRCuddapah, Andhra Pradesh
11/==/KKMKamalapuram (2)X  04:54 04:44+904:55 04:45+91m--2285.949141mSCRKadapa (YSR District), Andhra Pradesh
12/==/YAYerraguntla (2)  05:09 05:04+905:10 05:05+101m--2301.370171mSCRKadapa / Cuddapah (YSR District), Andhra Pradesh
13/==/MOOMuddanuru (3)X  05:24 05:19+1405:25 05:20+151m--2317.632194mSCRKadapa (YSR District), Andhra Pradesh
14/==/KDPKondapuram (2)  06:04+006:05+61m--2341.265214mSCRKadapa (YSR District), Andhra Pradesh
15/==/TUTadipatri (3)06:31+506:32+61m12369.267243mSCRAnantapuram Dist, Andhra Pradesh
16/==/RLORayala Cheruvu (2)X  06:54+1006:55+111m12393.722292mSCRRayalacheruvu, Andhra Pradesh
17/==/GYGooty Junction (2)  07:59+108:00+41m22417.357370mSCRNH 7 Anantapur District, Andhra Pradesh
18/==/GTLGuntakal Junction (6)X08:30+708:50+1520m52445.975453mSCRGuntakal. Tel: 08552-227131/32, Andhra Pradesh
19%==%NRRNagarur (2)  09:39 09:24+2609:40 09:25+271m22488.463427mSCRKurnool, Andhra Pradesh
20%==%ADAdoni (4)  09:59 09:34+2810:00 09:35+291m42497.962420mSCRAdoni Tel: 08512-252368, Andhra Pradesh
21%==%KGLKupgal (2)  10:14 09:49+3310:15 09:50+341m12512.391417mSCRKurnool Dist., Andhra Pradesh
22%==%KOKosigi (2)  10:24 09:59+3810:25 10:00+401m22526.024379mSCRKurnool Dist., Andhra Pradesh
23%==%MALMMantralayam Road (3)X  10:59 10:33+2311:00 10:35+351 2m12539.175335mSCRKurnool Tel: 08512-259830, Andhra Pradesh
24%==%MTUMatmari  11:14 10:44+4011:15 10:45+401m12550.357371mSCRRaichur, Karnataka
25%==%RCRaichur Junction (3)  11:54 11:03+4011:55 11:05+431 2m22567.563406mSCRRaichur, Karnataka
26%==%KSNKrishna (2)  12:19 11:29+4612:20 11:30+481m22592.764352mSCRDist Mahabubnagar, Telangana
27%==%SADPSaidapur (3)  12:37 11:49+5212:38 11:50+541m22613.042377mSCRYadgir Dist., Karnataka
28%==%YGYadgir (3)  12:56 12:23+4412:57 12:25+1:041 2m22636.180369mSCRYadgir, Karnataka
29%==%NWNalwar (2)X  13:31 12:44+1:0913:32 12:45+1:301m12661.56406mSCRGulbarga, Karnataka
30%==%WADIWadi Junction (4)  14:55-115:00+15m32675.250431mCRWadi, Karnataka
31%==%SDBShahabad (3)•  15:12+215:13+31m12685.355403mCRShahabad, Karnataka
32%==!GRGulbarga (4)  15:44 15:42+015:45+41 3m12712.061458mCRGulbarga 585101, Karnataka
33!==!GURGanagapur Road16:11+916:12+141m12738.443445mCRDist Gulbarga, Karnataka
34!==!DUDDudhani (2)X  16:44+1316:45+201m12761.458457mCRSolapur, Maharashtra
35!==!AKORAkalkot Road (2)  17:14+2017:15+231m12789.364456mCRDist Solapur, Maharashtra
36!==|HGHotgi Junction (3)  17:41 17:34+2417:42 17:35+241m22809.626473mCRHotgi 413215, Maharashtra
37|==|SURSolapur (5)18:10+1018:20+1510m32824.669461mCRSolapur 413001, Maharashtra
38|==!MOMohol (2)XO  18:49+1818:50+201m12857.972458mCRSolapur, Maharashtra
39!==!MAMadha (2)X  19:15+2019:16+221m12887.750481mCRSolapur, Maharashtra
40!==!KWVKurduvadi Junction (4)O  19:36 19:35+2119:37+221 2m22903.660516mCRKurduvadi Dist-Solapur, Maharashtra
41!==!KEMKem (2)  19:55+2319:56+271m12921.754548mCRKem, Maharashtra
42!==!JEURJeur (1)  20:14+2920:15+311m12937.856526mCRJeur, Maharashtra
43!==%BGVNBhigwan (2)X  21:04+2121:05+231m12983.837509mCRDaund, Maharashtra
44%==%DDDaund Junction (7)21:50+621:55+155m621011.550521mCRNew Daund Dist. Pune 413801, Maharashtra
45/==/PUNEPune Junction (6)23:25+523:40+915m321087.140556mCRPune 411001, Maharashtra
46/==/KKKhadki (3)  23:49+1923:50+191m221093.164562mCRPune 411003, Maharashtra
47/==/LNLLonavala (3)  00:44+1200:45+141m231150.736623mCRLonavala 410401, Maharashtra
48/==/KJTKarjat Junction (4)X  01:34 01:33+1401:35+161 2m231179.45657mCRKarjat, Maharashtra
49/==/KYNKalyan Junction (8)  02:29 02:25+1202:30+101 5m731226.29310mCRKalyan 421301, Maharashtra
50/==/TNAThane (10)  02:44 02:43+2002:45+201 2m631246.45810mCRThane (West) 400602, Maharashtra
51/==/DRMumbai Dadar Central (8)  03:14 03:10+1803:15+191 5m631270.7177mCRMumbai 400014, Maharashtra
52/==/CSTMMumbai CST (18)  03:45+4-1631279.3-10mCRMumbai 400001, Maharashtra
Scroll to Top
Scroll to Bottom


Go to Mobile site